createdAt,value
2023-04-02T00:01:23.322Z,99248.60
2023-04-02T00:03:54.226Z,99256.31
2023-04-02T00:06:34.173Z,99259.87
2023-04-02T00:09:17.269Z,99258.80
2023-04-02T00:11:48.484Z,99261.85
2023-04-02T00:14:27.050Z,99266.42
2023-04-02T00:16:56.885Z,99269.98
2023-04-02T00:19:30.203Z,99270.75
2023-04-02T00:22:00.345Z,99277.71
2023-04-02T00:24:28.059Z,99283.41
2023-04-02T00:26:55.875Z,99284.52
2023-04-02T00:29:23.573Z,99280.75
2023-04-02T00:31:52.990Z,99283.40
2023-04-02T00:34:25.352Z,99288.16
2023-04-02T00:36:53.425Z,99291.81
2023-04-02T00:39:27.146Z,99292.40
2023-04-02T00:42:14.076Z,99298.35
2023-04-02T00:44:45.503Z,99299.50
2023-04-02T00:47:37.252Z,99300.33
2023-04-02T00:50:22.299Z,99308.33
2023-04-02T00:52:52.415Z,99307.21
2023-04-02T00:55:39.242Z,99311.50
2023-04-02T00:58:48.859Z,99308.98
2023-04-02T01:01:19.541Z,99317.02
2023-04-02T01:04:01.707Z,99318.84
2023-04-02T01:06:37.370Z,99322.53
2023-04-02T01:09:12.560Z,99324.83
2023-04-02T01:11:58.781Z,99327.42
2023-04-02T01:14:37.906Z,99329.42
2023-04-02T01:17:26.549Z,99335.99
2023-04-02T01:20:11.520Z,99336.95
2023-04-02T01:22:55.286Z,99339.08
2023-04-02T01:25:25.936Z,99334.66
2023-04-02T01:28:06.675Z,99339.80
2023-04-02T01:30:36.550Z,99340.02
2023-04-02T01:33:06.893Z,99346.20
2023-04-02T01:35:44.373Z,99343.29
2023-04-02T01:38:21.075Z,99347.84
2023-04-02T01:41:11.532Z,99350.02
2023-04-02T01:44:13.281Z,99353.39
2023-04-02T01:46:42.883Z,99354.77
2023-04-02T01:49:22.593Z,99356.91
2023-04-02T01:51:56.261Z,99359.86
2023-04-02T01:54:28.729Z,99368.59
2023-04-02T01:56:57.471Z,99373.98
2023-04-02T01:59:26.524Z,99373.91
2023-04-02T02:02:03.470Z,99378.50
2023-04-02T02:04:34.528Z,99379.31
2023-04-02T02:07:04.120Z,99380.09
2023-04-02T02:09:35.749Z,99383.98
2023-04-02T02:12:05.261Z,99384.47
2023-04-02T02:14:33.368Z,99390.48
2023-04-02T02:17:03.939Z,99397.71
2023-04-02T02:19:39.905Z,99401.19
2023-04-02T02:22:33.082Z,99401.64
2023-04-02T02:25:05.231Z,99407.44
2023-04-02T02:28:04.971Z,99406.44
2023-04-02T02:30:48.587Z,99409.21
2023-04-02T02:33:25.450Z,99409.99
2023-04-02T02:36:20.516Z,99414.92
2023-04-02T02:38:51.836Z,99413.14
2023-04-02T02:41:53.950Z,99413.98
2023-04-02T02:44:29.775Z,99414.84
2023-04-02T02:47:05.187Z,99420.13
2023-04-02T02:49:39.281Z,99422.45
2023-04-02T02:52:17.074Z,99424.67
2023-04-02T02:54:55.123Z,99423.80
2023-04-02T02:57:33.340Z,99426.08
2023-04-02T03:00:05.483Z,99430.02
2023-04-02T03:02:38.483Z,99437.85
2023-04-02T03:05:08.184Z,99439.97
2023-04-02T03:07:37.248Z,99441.39
2023-04-02T03:10:47.782Z,99447.55
2023-04-02T03:13:23.483Z,99450.80
2023-04-02T03:15:55.993Z,99451.41
2023-04-02T03:18:36.525Z,99457.83
2023-04-02T03:21:31.328Z,99460.85
2023-04-02T03:24:09.496Z,99458.92
2023-04-02T03:26:45.841Z,99463.69
2023-04-02T03:29:18.438Z,99464.23
2023-04-02T03:32:25.337Z,99465.65
2023-04-02T03:35:20.347Z,99474.64
2023-04-02T03:38:19.956Z,99475.36
2023-04-02T03:41:11.061Z,99478.50
2023-04-02T03:44:03.220Z,99485.91
2023-04-02T03:46:40.956Z,99487.09
2023-04-02T03:49:23.620Z,99494.88
2023-04-02T03:51:55.682Z,99496.77
2023-04-02T03:54:23.507Z,99506.72
2023-04-02T03:56:53.193Z,99506.34
2023-04-02T03:59:25.205Z,99515.47
2023-04-02T04:02:01.214Z,99516.44
2023-04-02T04:04:31.592Z,99522.11
2023-04-02T04:07:01.638Z,99528.69
2023-04-02T04:09:36.975Z,99527.98
2023-04-02T04:12:30.226Z,99538.21
2023-04-02T04:15:15.228Z,99540.10
2023-04-02T04:18:04.734Z,99546.16
2023-04-02T04:20:50.425Z,99551.73
2023-04-02T04:23:30.327Z,99555.79
2023-04-02T04:26:09.616Z,99556.55
2023-04-02T04:28:58.212Z,99561.04
2023-04-02T04:31:39.427Z,99562.39
2023-04-02T04:34:16.159Z,99564.95
2023-04-02T04:36:54.465Z,99565.38
2023-04-02T04:39:45.461Z,99569.32
2023-04-02T04:42:23.987Z,99568.84
2023-04-02T04:45:00.532Z,99568.94
2023-04-02T04:47:59.082Z,99574.70
2023-04-02T04:50:32.924Z,99576.80
2023-04-02T04:53:08.476Z,99582.21
2023-04-02T04:55:40.243Z,99585.52
2023-04-02T04:58:32.953Z,99582.46
2023-04-02T05:01:20.734Z,99587.85
2023-04-02T05:04:21.429Z,99593.36
2023-04-02T05:07:12.167Z,99596.29
2023-04-02T05:10:12.801Z,99601.21
2023-04-02T05:12:49.566Z,99612.16
2023-04-02T05:15:48.694Z,99617.30
2023-04-02T05:18:35.534Z,99618.29
2023-04-02T05:21:44.113Z,99627.48
2023-04-02T05:24:37.466Z,99627.30
2023-04-02T05:27:18.627Z,99630.23
2023-04-02T05:29:59.204Z,99633.42
2023-04-02T05:32:34.548Z,99639.63
2023-04-02T05:35:06.521Z,99640.39
2023-04-02T05:37:39.689Z,99643.14
2023-04-02T05:40:21.392Z,99640.43
2023-04-02T05:42:52.948Z,99645.67
2023-04-02T05:45:32.856Z,99650.70
2023-04-02T05:48:13.041Z,99659.29
2023-04-02T05:50:47.361Z,99663.00
2023-04-02T05:53:25.040Z,99666.73
2023-04-02T05:56:25.071Z,99672.13
2023-04-02T05:59:00.776Z,99675.08
2023-04-02T06:01:51.738Z,99672.64
2023-04-02T06:04:53.628Z,99678.91
2023-04-02T06:07:29.349Z,99681.17
2023-04-02T06:10:34.972Z,99686.63
2023-04-02T06:13:07.531Z,99689.60
2023-04-02T06:15:39.444Z,99690.69
2023-04-02T06:18:19.170Z,99694.20
2023-04-02T06:20:48.193Z,99692.58
2023-04-02T06:23:36.321Z,99697.33
2023-04-02T06:26:25.008Z,99699.34
2023-04-02T06:29:01.472Z,99705.05
2023-04-02T06:31:38.941Z,99702.30
2023-04-02T06:34:17.184Z,99705.80
2023-04-02T06:36:55.677Z,99710.11
2023-04-02T06:39:27.123Z,99716.96
2023-04-02T06:42:07.334Z,99718.59
2023-04-02T06:44:51.009Z,99723.50
2023-04-02T06:47:42.415Z,99729.83
2023-04-02T06:50:27.756Z,99732.89
2023-04-02T06:52:59.813Z,99734.63
2023-04-02T06:55:43.434Z,99736.40
2023-04-02T06:58:11.153Z,99745.38
2023-04-02T07:00:43.203Z,99747.21
2023-04-02T07:03:24.108Z,99751.31
2023-04-02T07:05:52.932Z,99756.67
2023-04-02T07:08:21.602Z,99755.23
2023-04-02T07:10:49.651Z,99757.98
2023-04-02T07:13:20.059Z,99765.15
2023-04-02T07:15:52.328Z,99766.66
2023-04-02T07:18:27.644Z,99773.31
2023-04-02T07:20:56.902Z,99776.89
2023-04-02T07:23:26.379Z,99782.34
2023-04-02T07:25:55.582Z,99783.05
2023-04-02T07:28:23.999Z,99786.11
2023-04-02T07:30:52.457Z,99787.77
2023-04-02T07:33:25.800Z,99792.66
2023-04-02T07:35:56.042Z,99802.05
2023-04-02T07:38:24.532Z,99801.14
2023-04-02T07:40:52.462Z,99803.45
2023-04-02T07:43:20.463Z,99804.49
2023-04-02T07:45:50.479Z,99812.17
2023-04-02T07:48:18.093Z,99814.96
2023-04-02T07:50:45.968Z,99820.77
2023-04-02T07:53:32.422Z,99819.92
2023-04-02T07:56:02.778Z,99821.81
2023-04-02T07:58:32.664Z,99829.81
2023-04-02T08:01:01.696Z,99828.80
2023-04-02T08:03:29.692Z,99836.52
2023-04-02T08:05:58.672Z,99836.41
2023-04-02T08:08:26.390Z,99842.15
2023-04-02T08:10:55.410Z,99844.99
2023-04-02T08:13:23.156Z,99847.05
2023-04-02T08:15:50.829Z,99850.83
2023-04-02T08:18:23.329Z,99850.23
2023-04-02T08:20:52.513Z,99853.73
2023-04-02T08:23:21.612Z,99858.21
2023-04-02T08:25:50.498Z,99867.36
2023-04-02T08:28:18.432Z,99862.05
2023-04-02T08:30:46.319Z,99871.34
2023-04-02T08:33:13.944Z,99868.31
2023-04-02T08:35:41.629Z,99869.60
2023-04-02T08:38:14.624Z,99870.52
2023-04-02T08:40:54.253Z,99875.83
2023-04-02T08:43:44.051Z,99876.36
2023-04-02T08:46:30.173Z,99881.72
2023-04-02T08:49:01.291Z,99883.32
2023-04-02T08:51:32.833Z,99885.59
2023-04-02T08:54:08.807Z,99889.80
2023-04-02T08:56:47.089Z,99887.27
2023-04-02T08:59:30.821Z,99894.34
2023-04-02T09:02:30.428Z,99892.00
2023-04-02T09:05:03.145Z,99900.48
2023-04-02T09:07:33.094Z,99901.14
2023-04-02T09:10:01.263Z,99905.13
2023-04-02T09:12:31.685Z,99909.55
2023-04-02T09:14:59.274Z,99909.70
2023-04-02T09:17:27.469Z,99915.10
2023-04-02T09:20:21.212Z,99920.35
2023-04-02T09:22:51.241Z,99924.95
2023-04-02T09:25:22.289Z,99927.59
2023-04-02T09:27:53.190Z,99932.23
2023-04-02T09:30:40.940Z,99931.42
2023-04-02T09:33:09.095Z,99936.39
2023-04-02T09:35:55.865Z,99938.45
2023-04-02T09:38:31.367Z,99937.52
2023-04-02T09:41:00.237Z,99946.23
2023-04-02T09:43:43.928Z,99948.11
2023-04-02T09:46:28.566Z,99948.08
2023-04-02T09:49:01.062Z,99954.79
2023-04-02T09:51:34.739Z,99952.63
2023-04-02T09:54:02.396Z,99954.13
2023-04-02T09:56:32.841Z,99957.30
2023-04-02T09:59:13.864Z,99965.74
2023-04-02T10:01:44.774Z,99968.39
2023-04-02T10:04:45.294Z,99976.66
2023-04-02T10:07:36.795Z,99980.44
2023-04-02T10:10:25.916Z,99983.67
2023-04-02T10:13:00.358Z,99987.17
2023-04-02T10:15:52.896Z,99989.33
2023-04-02T10:18:43.468Z,99995.94
2023-04-02T10:21:15.737Z,99996.68
2023-04-02T10:23:43.534Z,99995.26
2023-04-02T10:26:33.323Z,100002.27
2023-04-02T10:29:16.895Z,100004.61
2023-04-02T10:32:16.428Z,100009.16
2023-04-02T10:35:05.819Z,100010.84
2023-04-02T10:38:05.452Z,100017.80
2023-04-02T10:40:39.539Z,100014.28
2023-04-02T10:43:39.169Z,100013.12
2023-04-02T10:46:09.935Z,100021.73
2023-04-02T10:48:53.619Z,100023.89
2023-04-02T10:51:43.008Z,100031.64
2023-04-02T10:54:21.315Z,100032.94
2023-04-02T10:56:53.189Z,100038.46
2023-04-02T10:59:32.147Z,100041.06
2023-04-02T11:02:04.157Z,100040.08
2023-04-02T11:04:45.359Z,100042.45
2023-04-02T11:07:24.624Z,100051.44
2023-04-02T11:09:56.548Z,100056.27
2023-04-02T11:12:42.084Z,100059.88
2023-04-02T11:15:18.830Z,100068.30
2023-04-02T11:17:47.602Z,100072.56
2023-04-02T11:20:47.229Z,100079.31
2023-04-02T11:23:18.645Z,100082.63
2023-04-02T11:25:47.328Z,100083.96
2023-04-02T11:28:28.659Z,100085.20
2023-04-02T11:30:57.680Z,100086.27
2023-04-02T11:33:44.261Z,100085.23
2023-04-02T11:36:46.197Z,100090.23
2023-04-02T11:39:33.782Z,100097.84
2023-04-02T11:42:22.015Z,100097.74
2023-04-02T11:44:49.642Z,100099.69
2023-04-02T11:47:29.861Z,100095.66
2023-04-02T11:50:01.543Z,100096.88
2023-04-02T11:52:37.979Z,100098.48
2023-04-02T11:55:24.342Z,100102.78
2023-04-02T11:58:10.855Z,100102.07
2023-04-02T12:01:14.849Z,100104.57
2023-04-02T12:04:13.490Z,100110.65
2023-04-02T12:06:47.379Z,100115.14
2023-04-02T12:09:44.036Z,100117.65
2023-04-02T12:12:31.868Z,100116.92
2023-04-02T12:15:00.893Z,100122.89
2023-04-02T12:17:35.552Z,100127.96
2023-04-02T12:20:10.007Z,100129.44
2023-04-02T12:22:54.992Z,100129.43
2023-04-02T12:25:40.801Z,100137.02
2023-04-02T12:28:28.599Z,100139.43
2023-04-02T12:31:12.896Z,100148.06
2023-04-02T12:33:42.593Z,100147.21
2023-04-02T12:36:16.407Z,100151.48
2023-04-02T12:38:56.452Z,100152.30
2023-04-02T12:41:31.152Z,100153.93
2023-04-02T12:44:00.270Z,100160.27
2023-04-02T12:46:30.467Z,100164.65
2023-04-02T12:49:34.699Z,100166.09
2023-04-02T12:52:11.583Z,100165.33
2023-04-02T12:54:57.581Z,100172.02
2023-04-02T12:57:25.283Z,100173.86
2023-04-02T12:59:55.046Z,100183.70
2023-04-02T13:02:28.594Z,100181.95
2023-04-02T13:05:01.381Z,100185.99
2023-04-02T13:07:32.078Z,100187.78
2023-04-02T13:10:01.739Z,100189.88
2023-04-02T13:12:36.005Z,100193.28
2023-04-02T13:15:17.863Z,100195.88
2023-04-02T13:17:48.878Z,100198.58
2023-04-02T13:20:38.107Z,100201.30
2023-04-02T13:23:39.680Z,100206.77
2023-04-02T13:26:24.600Z,100209.84
2023-04-02T13:29:12.417Z,100215.45
2023-04-02T13:31:40.362Z,100217.08
2023-04-02T13:34:07.997Z,100219.80
2023-04-02T13:36:37.261Z,100224.55
2023-04-02T13:39:05.530Z,100223.67
2023-04-02T13:41:57.154Z,100228.63
2023-04-02T13:44:31.173Z,100226.29
2023-04-02T13:46:59.990Z,100235.58
2023-04-02T13:49:28.512Z,100242.27
2023-04-02T13:51:59.305Z,100240.66
2023-04-02T13:54:29.398Z,100239.14
2023-04-02T13:56:57.430Z,100243.45
2023-04-02T13:59:25.949Z,100245.52
2023-04-02T14:01:57.731Z,100245.42
2023-04-02T14:04:29.879Z,100247.05
2023-04-02T14:07:27.238Z,100246.36
2023-04-02T14:10:01.152Z,100248.77
2023-04-02T14:12:57.634Z,100256.92
2023-04-02T14:15:41.225Z,100259.90
2023-04-02T14:18:30.577Z,100263.66
2023-04-02T14:21:29.074Z,100264.24
2023-04-02T14:24:16.354Z,100266.55
2023-04-02T14:27:11.927Z,100270.30
2023-04-02T14:29:58.085Z,100271.85
2023-04-02T14:32:42.693Z,100279.66
2023-04-02T14:35:18.803Z,100278.70
2023-04-02T14:37:52.820Z,100286.37
2023-04-02T14:40:53.414Z,100282.20
2023-04-02T14:43:30.631Z,100285.70
2023-04-02T14:46:10.277Z,100284.66
2023-04-02T14:48:41.032Z,100292.61
2023-04-02T14:51:22.157Z,100294.45
2023-04-02T14:54:13.400Z,100295.91
2023-04-02T14:56:59.560Z,100302.60
2023-04-02T14:59:52.272Z,100309.14
2023-04-02T15:02:34.898Z,100308.02
2023-04-02T15:05:21.087Z,100314.93
2023-04-02T15:08:06.433Z,100319.29
2023-04-02T15:10:49.515Z,100322.55
2023-04-02T15:13:22.768Z,100321.22
2023-04-02T15:16:05.689Z,100325.30
2023-04-02T15:18:33.754Z,100328.75
2023-04-02T15:21:23.101Z,100336.31
2023-04-02T15:24:13.720Z,100333.13
2023-04-02T15:27:21.856Z,100340.31
2023-04-02T15:29:58.538Z,100345.58
2023-04-02T15:32:29.405Z,100345.48
2023-04-02T15:35:21.280Z,100356.36
2023-04-02T15:38:22.522Z,100364.95
2023-04-02T15:41:23.576Z,100367.79
2023-04-02T15:44:12.830Z,100372.84
2023-04-02T15:46:59.337Z,100372.41
2023-04-02T15:49:46.554Z,100377.96
2023-04-02T15:52:22.911Z,100386.50
2023-04-02T15:55:22.343Z,100385.14
2023-04-02T15:58:17.115Z,100387.10
2023-04-02T16:01:30.737Z,100390.75
2023-04-02T16:04:32.522Z,100394.45
2023-04-02T16:07:23.841Z,100398.15
2023-04-02T16:10:14.141Z,100404.36
2023-04-02T16:12:41.889Z,100409.74
2023-04-02T16:15:28.610Z,100413.94
2023-04-02T16:18:03.141Z,100410.30
2023-04-02T16:20:34.807Z,100415.34
2023-04-02T16:23:11.570Z,100415.94
2023-04-02T16:25:43.587Z,100419.71
2023-04-02T16:28:24.216Z,100421.77
2023-04-02T16:31:13.870Z,100424.32
2023-04-02T16:33:59.560Z,100424.15
2023-04-02T16:36:33.346Z,100431.70
2023-04-02T16:39:13.152Z,100432.60
2023-04-02T16:41:56.700Z,100429.85
2023-04-02T16:44:43.153Z,100435.90
2023-04-02T16:47:45.202Z,100444.34
2023-04-02T16:50:18.946Z,100442.79
2023-04-02T16:53:03.467Z,100449.77
2023-04-02T16:55:51.397Z,100455.52
2023-04-02T16:58:27.755Z,100462.26
2023-04-02T17:01:31.180Z,100466.88
2023-04-02T17:04:14.379Z,100471.44
2023-04-02T17:06:47.822Z,100475.56
2023-04-02T17:09:48.843Z,100476.77
2023-04-02T17:12:22.127Z,100476.45
2023-04-02T17:14:57.368Z,100482.54
2023-04-02T17:17:25.201Z,100484.17
2023-04-02T17:19:58.648Z,100490.59
2023-04-02T17:22:29.564Z,100499.05
2023-04-02T17:25:00.158Z,100496.98
2023-04-02T17:27:33.703Z,100504.64
2023-04-02T17:30:04.215Z,100510.27
2023-04-02T17:32:33.643Z,100519.91
2023-04-02T17:35:22.565Z,100526.28
2023-04-02T17:38:00.942Z,100529.64
2023-04-02T17:40:43.020Z,100533.10
2023-04-02T17:43:39.556Z,100541.09
2023-04-02T17:46:23.344Z,100546.41
2023-04-02T17:49:20.122Z,100548.80
2023-04-02T17:52:00.876Z,100556.41
2023-04-02T17:54:37.064Z,100559.80
2023-04-02T17:57:31.263Z,100568.09
2023-04-02T18:00:19.472Z,100570.55
2023-04-02T18:02:56.209Z,100576.34
2023-04-02T18:05:34.920Z,100580.15
2023-04-02T18:08:18.765Z,100581.59
2023-04-02T18:11:06.533Z,100583.08
2023-04-02T18:14:08.119Z,100587.30
2023-04-02T18:16:51.869Z,100590.63
2023-04-02T18:19:25.910Z,100594.77
2023-04-02T18:22:09.460Z,100601.13
2023-04-02T18:25:00.647Z,100609.53
2023-04-02T18:28:00.271Z,100608.80
2023-04-02T18:30:38.777Z,100611.92
2023-04-02T18:33:38.740Z,100614.52
2023-04-02T18:36:29.180Z,100617.08
2023-04-02T18:39:02.797Z,100624.34
2023-04-02T18:41:52.732Z,100628.45
2023-04-02T18:44:42.813Z,100630.75
2023-04-02T18:47:30.289Z,100634.40
2023-04-02T18:50:24.198Z,100644.91
2023-04-02T18:52:51.852Z,100649.63
2023-04-02T18:55:24.696Z,100657.46
2023-04-02T18:57:58.981Z,100663.40
2023-04-02T19:00:36.654Z,100664.38
2023-04-02T19:03:10.957Z,100666.95
2023-04-02T19:05:44.565Z,100671.80
2023-04-02T19:08:12.338Z,100680.09
2023-04-02T19:10:44.942Z,100677.88
2023-04-02T19:13:18.578Z,100685.73
2023-04-02T19:15:55.424Z,100689.04
2023-04-02T19:18:35.486Z,100693.98
2023-04-02T19:21:45.523Z,100694.92
2023-04-02T19:24:23.821Z,100699.68
2023-04-02T19:27:04.595Z,100706.55
2023-04-02T19:29:51.111Z,100703.88
2023-04-02T19:32:34.686Z,100705.10
2023-04-02T19:35:08.082Z,100702.86
2023-04-02T19:37:43.567Z,100710.66
2023-04-02T19:40:43.278Z,100711.15
2023-04-02T19:43:11.452Z,100715.21
2023-04-02T19:45:40.384Z,100712.86
2023-04-02T19:48:17.744Z,100714.91
2023-04-02T19:50:46.562Z,100714.83
2023-04-02T19:53:15.779Z,100721.44
2023-04-02T19:55:44.623Z,100725.00
2023-04-02T19:58:34.105Z,100724.45
2023-04-02T20:01:03.238Z,100733.04
2023-04-02T20:03:31.473Z,100738.01
2023-04-02T20:05:59.863Z,100741.15
2023-04-02T20:08:28.466Z,100746.83
2023-04-02T20:10:58.621Z,100747.52
2023-04-02T20:13:26.297Z,100749.54
2023-04-02T20:15:54.779Z,100758.83
2023-04-02T20:18:22.397Z,100762.91
2023-04-02T20:20:50.237Z,100762.77
2023-04-02T20:23:18.499Z,100762.00
2023-04-02T20:25:54.942Z,100770.98
2023-04-02T20:28:24.189Z,100773.49
2023-04-02T20:30:52.732Z,100776.21
2023-04-02T20:33:23.632Z,100777.01
2023-04-02T20:35:52.354Z,100775.10
2023-04-02T20:38:20.665Z,100780.57
2023-04-02T20:40:52.758Z,100787.05
2023-04-02T20:43:20.809Z,100787.23
2023-04-02T20:45:56.550Z,100795.71
2023-04-02T20:48:25.551Z,100796.83
2023-04-02T20:50:54.209Z,100802.90
2023-04-02T20:53:21.896Z,100799.80
2023-04-02T20:55:49.627Z,100809.55
2023-04-02T20:58:18.789Z,100811.73
2023-04-02T21:00:46.419Z,100814.02
2023-04-02T21:03:14.120Z,100818.52
2023-04-02T21:05:46.097Z,100818.96
2023-04-02T21:08:14.426Z,100829.35
2023-04-02T21:10:42.047Z,100825.85
2023-04-02T21:13:09.656Z,100833.92
2023-04-02T21:15:42.846Z,100833.70
2023-04-02T21:18:10.498Z,100838.38
2023-04-02T21:20:38.106Z,100839.70
2023-04-02T21:23:05.732Z,100840.56
2023-04-02T21:25:33.341Z,100847.43
2023-04-02T21:28:00.985Z,100848.71
2023-04-02T21:30:28.698Z,100844.14
2023-04-02T21:32:56.316Z,100844.95
2023-04-02T21:35:23.948Z,100849.24
2023-04-02T21:37:51.887Z,100849.34
2023-04-02T21:40:19.788Z,100851.09
2023-04-02T21:42:47.720Z,100854.71
2023-04-02T21:45:15.383Z,100855.95
2023-04-02T21:47:43.066Z,100853.11
2023-04-02T21:50:10.741Z,100857.42
2023-04-02T21:52:38.358Z,100861.42
2023-04-02T21:55:06.155Z,100861.41
2023-04-02T21:57:33.807Z,100859.84
2023-04-02T22:00:01.429Z,100864.39
2023-04-02T22:02:29.138Z,100863.98
2023-04-02T22:04:57.101Z,100865.55
2023-04-02T22:07:24.769Z,100868.11
2023-04-02T22:09:52.375Z,100872.10
2023-04-02T22:12:20.368Z,100873.41
2023-04-02T22:14:47.989Z,100874.36
2023-04-02T22:17:15.681Z,100873.75
2023-04-02T22:19:43.861Z,100880.86
2023-04-02T22:22:11.479Z,100884.80
2023-04-02T22:24:39.076Z,100886.23
2023-04-02T22:27:06.700Z,100889.77
2023-04-02T22:29:34.305Z,100889.30
2023-04-02T22:32:01.952Z,100894.90
2023-04-02T22:34:29.610Z,100896.70
2023-04-02T22:36:57.623Z,100893.26
2023-04-02T22:39:25.455Z,100894.86
2023-04-02T22:41:53.070Z,100898.42
2023-04-02T22:44:20.681Z,100898.28
2023-04-02T22:46:48.427Z,100898.56
2023-04-02T22:49:19.351Z,100899.15
2023-04-02T22:51:47.455Z,100899.89
2023-04-02T22:54:15.255Z,100900.48
2023-04-02T22:56:42.877Z,100895.33
2023-04-02T22:59:10.746Z,100900.77
2023-04-02T23:01:38.548Z,100902.62
2023-04-02T23:04:06.310Z,100904.84
2023-04-02T23:06:33.975Z,100904.50
2023-04-02T23:09:01.660Z,100910.19
2023-04-02T23:11:29.347Z,100909.95
2023-04-02T23:13:58.200Z,100912.17
2023-04-02T23:16:28.718Z,100912.61
2023-04-02T23:18:57.070Z,100915.92
2023-04-02T23:21:25.849Z,100915.87
2023-04-02T23:23:53.776Z,100911.44
2023-04-02T23:26:24.545Z,100912.98
2023-04-02T23:28:52.227Z,100913.15
2023-04-02T23:31:22.608Z,100915.67
2023-04-02T23:33:52.045Z,100918.91
2023-04-02T23:36:23.719Z,100917.33
2023-04-02T23:38:56.782Z,100919.89
2023-04-02T23:41:26.884Z,100918.23
2023-04-02T23:43:56.502Z,100921.20
2023-04-02T23:46:24.897Z,100920.88
2023-04-02T23:48:53.287Z,100924.80
2023-04-02T23:51:21.954Z,100929.47
2023-04-02T23:53:50.538Z,100925.09
2023-04-02T23:56:19.011Z,100927.78
2023-04-02T23:58:46.625Z,100931.36
